Uni Wealth — VRFV4 — position and weather

sailwx.info

Track history (hours):
 
Tides and Currents Weather Stations Pressure Air Temp Water Temp Dewpoint Dewpoint Depression Visibility Wind Speed Wind Dir Waves Ship Positions

Uni Wealth

Last reported at 2014-Sep-09 11:32 UTC. Time now 2014-Sep-30 12:00 UTC.
Position N 21°59' E 113°51'.
Warning: this ship's position is 21 days out of date.

Length 170 m; draft 8.8 m.

Type: Cargo ship. MMSI: 477621200.

Date/timePositionNaut miles runAvg speedWind from/ knotsBaromVisibWave heightAir tempDewpointWater temp
2014-Sep-09 11:32N 21°59' E 113°51'1111.2
2014-Sep-09 10:33N 22°10' E 113°47'1111.4
2014-Sep-09 09:34N 22°21' E 113°47'1514.8
2014-Sep-09 08:33N 22°36' E 113°43'30 1.4
2014-Sep-08 11:09N 23°03' E 113°30'0 0.0
2014-Sep-08 10:27N 23°03' E 113°30'0 0.0
2014-Sep-08 09:33N 23°03' E 113°30'0 0.1
2014-Sep-08 08:32N 23°03' E 113°30'8 7.6
2014-Sep-08 07:30N 22°56' E 113°33'9 9.4
2014-Sep-08 06:33N 22°47' E 113°37'14 9.6
2014-Sep-08 05:07N 22°35' E 113°43'711.5
2014-Sep-08 04:30N 22°28' E 113°45'1111.3
2014-Sep-08 03:33N 22°18' E 113°48'10 9.9
2014-Sep-08 02:33N 22°08' E 113°48'8 8.2
2014-Sep-08 01:32N 22°06' E 113°57'17812.4
2014-Sep-07 11:08N 22°53' E 117°03'712.3
2014-Sep-07 10:33N 22°56' E 117°10'1312.8
2014-Sep-07 09:32N 23°02' E 117°22'1313.6
2014-Sep-07 08:33N 23°09' E 117°35'1413.9
2014-Sep-07 07:32N 23°16' E 117°48'1414.1
2014-Sep-07 06:33N 23°24' E 118°01'1913.9
2014-Sep-07 05:10N 23°34' E 118°19'812.7
2014-Sep-07 04:32N 23°42' E 118°21'1414.1
2014-Sep-07 03:33N 23°55' E 118°19'1414.2
2014-Sep-07 02:33N 24°09' E 118°18'1111.2
2014-Sep-07 01:33N 24°18' E 118°11'10 9.8
2014-Sep-07 00:33N 24°26' E 118°04'7 7.0
2014-Sep-06 23:30N 24°33' E 118°06'0 0.0
2014-Sep-06 22:31N 24°33' E 118°06'0 0.0
2014-Sep-06 21:30N 24°33' E 118°06'0 0.0
2014-Sep-06 20:30N 24°33' E 118°06'0 0.0
2014-Sep-06 19:30N 24°33' E 118°06'0 0.0
2014-Sep-06 18:25N 24°33' E 118°06'0 0.0
2014-Sep-06 17:30N 24°33' E 118°06'0 0.0
2014-Sep-06 16:30N 24°33' E 118°06'0 0.0
2014-Sep-06 15:30N 24°33' E 118°06'0 0.0
2014-Sep-06 14:30N 24°33' E 118°06'0 0.0
2014-Sep-06 13:30N 24°33' E 118°06'0 0.0
2014-Sep-06 12:30N 24°33' E 118°06'0 0.0
2014-Sep-06 11:30N 24°33' E 118°06'0 0.0
2014-Sep-06 10:24N 24°33' E 118°06'0 0.0
2014-Sep-06 09:30N 24°33' E 118°06'0 0.0
2014-Sep-06 08:24N 24°33' E 118°06'0 0.0
2014-Sep-06 07:24N 24°33' E 118°06'0 0.0
2014-Sep-06 06:30N 24°33' E 118°06'0 0.0
2014-Sep-06 05:30N 24°33' E 118°06'0 0.0
2014-Sep-06 04:30N 24°33' E 118°06'0 0.0
2014-Sep-06 03:30N 24°33' E 118°06'0 0.0
2014-Sep-06 02:30N 24°33' E 118°06'0 0.0
2014-Sep-06 01:30N 24°33' E 118°06'0 0.0
2014-Sep-06 00:24N 24°33' E 118°06'0 0.0
2014-Sep-05 23:30N 24°33' E 118°06'0 0.0
2014-Sep-05 22:30N 24°33' E 118°06'0 0.0
2014-Sep-05 21:30N 24°33' E 118°06'0 0.0
2014-Sep-05 20:30N 24°33' E 118°06'0 0.0
2014-Sep-05 19:30N 24°33' E 118°06'0 0.0
2014-Sep-05 18:30N 24°33' E 118°06'0 0.0
2014-Sep-05 17:30N 24°33' E 118°06'0 0.0
2014-Sep-05 16:30N 24°33' E 118°06'0 0.0
2014-Sep-05 15:30N 24°33' E 118°06'0 0.0
2014-Sep-05 14:30N 24°33' E 118°06'0 0.0
2014-Sep-05 13:30N 24°33' E 118°06'0 0.0
2014-Sep-05 12:30N 24°33' E 118°06'0 0.0
2014-Sep-05 11:30N 24°33' E 118°06'0 0.0
2014-Sep-05 10:30N 24°33' E 118°06'0 0.0
2014-Sep-05 09:30N 24°33' E 118°06'0 0.0
2014-Sep-05 08:30N 24°33' E 118°06'0 0.0
2014-Sep-05 07:30N 24°33' E 118°06'0 0.0
2014-Sep-05 06:30N 24°33' E 118°06'0 0.0
2014-Sep-05 05:30N 24°33' E 118°06'0 0.0
2014-Sep-05 04:30N 24°33' E 118°06'0 0.0
2014-Sep-05 03:24N 24°33' E 118°06'0 0.0
2014-Sep-05 02:31N 24°33' E 118°06'0 0.0
2014-Sep-05 01:31N 24°33' E 118°06'0 0.0
2014-Sep-05 00:31N 24°33' E 118°06'0 0.0
2014-Sep-04 23:31N 24°33' E 118°06'0 0.0
2014-Sep-04 22:31N 24°33' E 118°06'0 0.0
2014-Sep-04 21:31N 24°33' E 118°06'0 0.0
2014-Sep-04 20:31N 24°33' E 118°06'0 0.0
2014-Sep-04 19:31N 24°33' E 118°06'0 0.0
2014-Sep-04 18:31N 24°33' E 118°06'0 0.0
2014-Sep-04 17:25N 24°33' E 118°06'0 0.1
2014-Sep-04 16:25N 24°33' E 118°06'0 0.0
2014-Sep-04 15:31N 24°33' E 118°06'0 0.0
2014-Sep-04 14:31N 24°33' E 118°06'0 0.0
2014-Sep-04 13:31N 24°33' E 118°06'0 0.0
2014-Sep-04 12:31N 24°33' E 118°06'0 0.0
2014-Sep-04 11:25N 24°33' E 118°06'0 0.0
2014-Sep-04 10:25N 24°33' E 118°06'0 0.0
2014-Sep-04 09:31N 24°33' E 118°06'0 0.0
2014-Sep-04 08:31N 24°33' E 118°06'0 0.0
2014-Sep-04 07:31N 24°33' E 118°06'0 0.0
2014-Sep-04 06:26N 24°33' E 118°06'0 0.0
2014-Sep-04 05:31N 24°33' E 118°06'0 0.0
2014-Sep-04 04:31N 24°33' E 118°06'0 0.0
2014-Sep-04 03:32N 24°33' E 118°06'0 0.0
2014-Sep-04 02:25N 24°33' E 118°06'0 0.0
2014-Sep-04 01:31N 24°33' E 118°06'0 0.0
2014-Sep-04 00:31N 24°33' E 118°06'0 0.0
2014-Sep-03 23:31N 24°33' E 118°06'0 0.0
2014-Sep-03 22:31N 24°33' E 118°06'0 0.0
2014-Sep-03 21:31N 24°33' E 118°06'0 0.0
2014-Sep-03 20:31N 24°33' E 118°06'0 0.0
2014-Sep-03 19:31N 24°33' E 118°06'0 0.0
2014-Sep-03 18:25N 24°33' E 118°06'0 0.0
2014-Sep-03 17:31N 24°33' E 118°06'0 0.0
2014-Sep-03 16:25N 24°33' E 118°06'0 0.0
2014-Sep-03 15:19N 24°33' E 118°06'0 0.0
2014-Sep-03 14:32N 24°33' E 118°06'0 0.0
2014-Sep-03 13:25N 24°33' E 118°06'0 0.0
2014-Sep-03 12:25N 24°33' E 118°06'0 0.0
2014-Sep-03 11:31N 24°33' E 118°06'0 0.0
2014-Sep-03 10:31N 24°33' E 118°06'0 0.0
2014-Sep-03 09:31N 24°33' E 118°06'0 0.0
2014-Sep-03 08:31N 24°33' E 118°06'0 0.0
2014-Sep-03 07:31N 24°33' E 118°06'0 0.0
2014-Sep-03 06:31N 24°33' E 118°06'0 0.0
2014-Sep-03 05:31N 24°33' E 118°06'1 1.2
2014-Sep-03 04:34N 24°32' E 118°05'9 8.8
2014-Sep-03 03:33N 24°23' E 118°07'9 8.6
2014-Sep-03 02:33N 24°15' E 118°11'1110.7
2014-Sep-03 01:33N 24°12' E 118°22'1211.2
2014-Sep-03 00:30N 24°14' E 118°35'2512.7
2014-Sep-02 22:34N 24°19' E 119°01'1812.3
2014-Sep-02 21:08N 24°29' E 119°18'912.4
2014-Sep-02 20:24N 24°35' E 119°25'1511.9
2014-Sep-02 19:08N 24°45' E 119°37'2011.9
2014-Sep-02 17:29N 24°57' E 119°54'1512.0
2014-Sep-02 16:16N 25°07' E 120°07'1312.2
2014-Sep-02 15:11N 25°16' E 120°17'6811.7
2014-Sep-02 09:23N 25°60' E 121°14'1011.3
2014-Sep-02 08:32N 26°06' E 121°22'  
Track history (hours):
 
Tides and Currents Weather Stations Pressure Air Temp Water Temp Dewpoint Dewpoint Depression Visibility Wind Speed Wind Dir Waves Ship Positions

Uni Wealth

Last reported at 2014-Sep-09 11:32 UTC. Time now 2014-Sep-30 12:00 UTC.
Position N 21°59' E 113°51'.
Warning: this ship's position is 21 days out of date.

Length 170 m; draft 8.8 m.

Type: Cargo ship. MMSI: 477621200.

Date/timePositionNaut miles runAvg speedWind from/ knotsBaromVisibWave heightAir tempDewpointWater temp
2014-Sep-09 11:32N 21°59' E 113°51'1111.2
2014-Sep-09 10:33N 22°10' E 113°47'1111.4
2014-Sep-09 09:34N 22°21' E 113°47'1514.8
2014-Sep-09 08:33N 22°36' E 113°43'30 1.4
2014-Sep-08 11:09N 23°03' E 113°30'0 0.0
2014-Sep-08 10:27N 23°03' E 113°30'0 0.0
2014-Sep-08 09:33N 23°03' E 113°30'0 0.1
2014-Sep-08 08:32N 23°03' E 113°30'8 7.6
2014-Sep-08 07:30N 22°56' E 113°33'9 9.4
2014-Sep-08 06:33N 22°47' E 113°37'14 9.6
2014-Sep-08 05:07N 22°35' E 113°43'711.5
2014-Sep-08 04:30N 22°28' E 113°45'1111.3
2014-Sep-08 03:33N 22°18' E 113°48'10 9.9
2014-Sep-08 02:33N 22°08' E 113°48'8 8.2
2014-Sep-08 01:32N 22°06' E 113°57'17812.4
2014-Sep-07 11:08N 22°53' E 117°03'712.3
2014-Sep-07 10:33N 22°56' E 117°10'1312.8
2014-Sep-07 09:32N 23°02' E 117°22'1313.6
2014-Sep-07 08:33N 23°09' E 117°35'1413.9
2014-Sep-07 07:32N 23°16' E 117°48'1414.1
2014-Sep-07 06:33N 23°24' E 118°01'1913.9
2014-Sep-07 05:10N 23°34' E 118°19'812.7
2014-Sep-07 04:32N 23°42' E 118°21'1414.1
2014-Sep-07 03:33N 23°55' E 118°19'1414.2
2014-Sep-07 02:33N 24°09' E 118°18'1111.2
2014-Sep-07 01:33N 24°18' E 118°11'10 9.8
2014-Sep-07 00:33N 24°26' E 118°04'7 7.0
2014-Sep-06 23:30N 24°33' E 118°06'0 0.0
2014-Sep-06 22:31N 24°33' E 118°06'0 0.0
2014-Sep-06 21:30N 24°33' E 118°06'0 0.0
2014-Sep-06 20:30N 24°33' E 118°06'0 0.0
2014-Sep-06 19:30N 24°33' E 118°06'0 0.0
2014-Sep-06 18:25N 24°33' E 118°06'0 0.0
2014-Sep-06 17:30N 24°33' E 118°06'0 0.0
2014-Sep-06 16:30N 24°33' E 118°06'0 0.0
2014-Sep-06 15:30N 24°33' E 118°06'0 0.0
2014-Sep-06 14:30N 24°33' E 118°06'0 0.0
2014-Sep-06 13:30N 24°33' E 118°06'0 0.0
2014-Sep-06 12:30N 24°33' E 118°06'0 0.0
2014-Sep-06 11:30N 24°33' E 118°06'0 0.0
2014-Sep-06 10:24N 24°33' E 118°06'0 0.0
2014-Sep-06 09:30N 24°33' E 118°06'0 0.0
2014-Sep-06 08:24N 24°33' E 118°06'0 0.0
2014-Sep-06 07:24N 24°33' E 118°06'0 0.0
2014-Sep-06 06:30N 24°33' E 118°06'0 0.0
2014-Sep-06 05:30N 24°33' E 118°06'0 0.0
2014-Sep-06 04:30N 24°33' E 118°06'0 0.0
2014-Sep-06 03:30N 24°33' E 118°06'0 0.0
2014-Sep-06 02:30N 24°33' E 118°06'0 0.0
2014-Sep-06 01:30N 24°33' E 118°06'0 0.0
2014-Sep-06 00:24N 24°33' E 118°06'0 0.0
2014-Sep-05 23:30N 24°33' E 118°06'0 0.0
2014-Sep-05 22:30N 24°33' E 118°06'0 0.0
2014-Sep-05 21:30N 24°33' E 118°06'0 0.0
2014-Sep-05 20:30N 24°33' E 118°06'0 0.0
2014-Sep-05 19:30N 24°33' E 118°06'0 0.0
2014-Sep-05 18:30N 24°33' E 118°06'0 0.0
2014-Sep-05 17:30N 24°33' E 118°06'0 0.0
2014-Sep-05 16:30N 24°33' E 118°06'0 0.0
2014-Sep-05 15:30N 24°33' E 118°06'0 0.0
2014-Sep-05 14:30N 24°33' E 118°06'0 0.0
2014-Sep-05 13:30N 24°33' E 118°06'0 0.0
2014-Sep-05 12:30N 24°33' E 118°06'0 0.0
2014-Sep-05 11:30N 24°33' E 118°06'0 0.0
2014-Sep-05 10:30N 24°33' E 118°06'0 0.0
2014-Sep-05 09:30N 24°33' E 118°06'0 0.0
2014-Sep-05 08:30N 24°33' E 118°06'0 0.0
2014-Sep-05 07:30N 24°33' E 118°06'0 0.0
2014-Sep-05 06:30N 24°33' E 118°06'0 0.0
2014-Sep-05 05:30N 24°33' E 118°06'0 0.0
2014-Sep-05 04:30N 24°33' E 118°06'0 0.0
2014-Sep-05 03:24N 24°33' E 118°06'0 0.0
2014-Sep-05 02:31N 24°33' E 118°06'0 0.0
2014-Sep-05 01:31N 24°33' E 118°06'0 0.0
2014-Sep-05 00:31N 24°33' E 118°06'0 0.0
2014-Sep-04 23:31N 24°33' E 118°06'0 0.0
2014-Sep-04 22:31N 24°33' E 118°06'0 0.0
2014-Sep-04 21:31N 24°33' E 118°06'0 0.0
2014-Sep-04 20:31N 24°33' E 118°06'0 0.0
2014-Sep-04 19:31N 24°33' E 118°06'0 0.0
2014-Sep-04 18:31N 24°33' E 118°06'0 0.0
2014-Sep-04 17:25N 24°33' E 118°06'0 0.1
2014-Sep-04 16:25N 24°33' E 118°06'0 0.0
2014-Sep-04 15:31N 24°33' E 118°06'0 0.0
2014-Sep-04 14:31N 24°33' E 118°06'0 0.0
2014-Sep-04 13:31N 24°33' E 118°06'0 0.0
2014-Sep-04 12:31N 24°33' E 118°06'0 0.0
2014-Sep-04 11:25N 24°33' E 118°06'0 0.0
2014-Sep-04 10:25N 24°33' E 118°06'0 0.0
2014-Sep-04 09:31N 24°33' E 118°06'0 0.0
2014-Sep-04 08:31N 24°33' E 118°06'0 0.0
2014-Sep-04 07:31N 24°33' E 118°06'0 0.0
2014-Sep-04 06:26N 24°33' E 118°06'0 0.0
2014-Sep-04 05:31N 24°33' E 118°06'0 0.0
2014-Sep-04 04:31N 24°33' E 118°06'0 0.0
2014-Sep-04 03:32N 24°33' E 118°06'0 0.0
2014-Sep-04 02:25N 24°33' E 118°06'0 0.0
2014-Sep-04 01:31N 24°33' E 118°06'0 0.0
2014-Sep-04 00:31N 24°33' E 118°06'0 0.0
2014-Sep-03 23:31N 24°33' E 118°06'0 0.0
2014-Sep-03 22:31N 24°33' E 118°06'0 0.0
2014-Sep-03 21:31N 24°33' E 118°06'0 0.0
2014-Sep-03 20:31N 24°33' E 118°06'0 0.0
2014-Sep-03 19:31N 24°33' E 118°06'0 0.0
2014-Sep-03 18:25N 24°33' E 118°06'0 0.0
2014-Sep-03 17:31N 24°33' E 118°06'0 0.0
2014-Sep-03 16:25N 24°33' E 118°06'0 0.0
2014-Sep-03 15:19N 24°33' E 118°06'0 0.0
2014-Sep-03 14:32N 24°33' E 118°06'0 0.0
2014-Sep-03 13:25N 24°33' E 118°06'0 0.0
2014-Sep-03 12:25N 24°33' E 118°06'0 0.0
2014-Sep-03 11:31N 24°33' E 118°06'0 0.0
2014-Sep-03 10:31N 24°33' E 118°06'0 0.0
2014-Sep-03 09:31N 24°33' E 118°06'0 0.0
2014-Sep-03 08:31N 24°33' E 118°06'0 0.0
2014-Sep-03 07:31N 24°33' E 118°06'0 0.0
2014-Sep-03 06:31N 24°33' E 118°06'0 0.0
2014-Sep-03 05:31N 24°33' E 118°06'1 1.2
2014-Sep-03 04:34N 24°32' E 118°05'9 8.8
2014-Sep-03 03:33N 24°23' E 118°07'9 8.6
2014-Sep-03 02:33N 24°15' E 118°11'1110.7
2014-Sep-03 01:33N 24°12' E 118°22'1211.2
2014-Sep-03 00:30N 24°14' E 118°35'2512.7
2014-Sep-02 22:34N 24°19' E 119°01'1812.3
2014-Sep-02 21:08N 24°29' E 119°18'912.4
2014-Sep-02 20:24N 24°35' E 119°25'1511.9
2014-Sep-02 19:08N 24°45' E 119°37'2011.9
2014-Sep-02 17:29N 24°57' E 119°54'1512.0
2014-Sep-02 16:16N 25°07' E 120°07'1312.2
2014-Sep-02 15:11N 25°16' E 120°17'6811.7
2014-Sep-02 09:23N 25°60' E 121°14'1011.3
2014-Sep-02 08:32N 26°06' E 121°22'  

Dump ship's entire track history